If you wish to contribute or participate in the discussions about articles you are invited to join SKYbrary as a registered user

 Actions

Bryant Army Air Force Airport

From SKYbrary Wiki

PAFR
Airport
ICAO: PAFR – IATA: FRN
Summary
Name Bryant Army Air Force Airport
Region North America
Territory Alaska US.gif
Location , Alaska
Serving Fort Richardson
Elevation 115.214 m
378 ft
378 ft115.214 m
Type small airport
Coordinates 61° 15' 58.97" N, 149° 39' 11.23" W
Runways
Designator Length Width Surface ROPS
17/35 1273 m4,176.509 ft
30 m98.425 ft
ASPH /


METAR
Observation PAFR 182258Z AUTO 00000KT 7SM CLR 06/01 A2918 RMK AO2 SLP889 T00610012 $
Station Ft. Richardson / Bryant U. S. Army Heliport, Ak
Date/Time 18 October 2019 22:58:00
Wind direction
Wind speed 00 kts
Lowest cloud amount n/a
Temperature 6.1°C
Dew point 1.2°C
Humidity 70%
QNH hPa
Weather condition n/a